sensor_id;sensor_type;location;lat;lon;timestamp;pressure;altitude;pressure_sealevel;temperature;humidity
77590;BME280;66746;51.328;12.332;2023-10-31T00:01:20;98456.94;;;12.21;100.00
77590;BME280;66746;51.328;12.332;2023-10-31T00:03:47;98447.03;;;12.20;100.00
77590;BME280;66746;51.328;12.332;2023-10-31T00:06:13;98428.28;;;12.17;100.00
77590;BME280;66746;51.328;12.332;2023-10-31T00:08:41;98434.78;;;12.14;100.00
77590;BME280;66746;51.328;12.332;2023-10-31T00:11:08;98441.09;;;12.15;100.00
77590;BME280;66746;51.328;12.332;2023-10-31T00:13:34;98448.25;;;12.16;100.00
77590;BME280;66746;51.328;12.332;2023-10-31T00:16:01;98445.03;;;12.11;100.00
77590;BME280;66746;51.328;12.332;2023-10-31T00:18:28;98458.59;;;12.11;100.00
77590;BME280;66746;51.328;12.332;2023-10-31T00:20:55;98461.09;;;12.14;100.00
77590;BME280;66746;51.328;12.332;2023-10-31T00:23:22;98451.97;;;12.15;100.00
77590;BME280;66746;51.328;12.332;2023-10-31T00:25:50;98459.13;;;12.16;100.00
77590;BME280;66746;51.328;12.332;2023-10-31T00:28:16;98462.84;;;12.15;100.00
77590;BME280;66746;51.328;12.332;2023-10-31T00:30:43;98459.38;;;12.13;100.00
77590;BME280;66746;51.328;12.332;2023-10-31T00:33:10;98451.97;;;12.15;100.00
77590;BME280;66746;51.328;12.332;2023-10-31T00:35:36;98451.34;;;12.11;100.00
77590;BME280;66746;51.328;12.332;2023-10-31T00:38:03;98448.75;;;12.10;100.00
77590;BME280;66746;51.328;12.332;2023-10-31T00:40:30;98443.31;;;12.10;100.00
77590;BME280;66746;51.328;12.332;2023-10-31T00:42:58;98438.97;;;12.07;100.00
77590;BME280;66746;51.328;12.332;2023-10-31T00:45:26;98441.56;;;12.09;100.00
77590;BME280;66746;51.328;12.332;2023-10-31T00:47:53;98425.72;;;12.03;100.00
77590;BME280;66746;51.328;12.332;2023-10-31T00:50:19;98445.91;;;12.11;100.00
77590;BME280;66746;51.328;12.332;2023-10-31T00:52:46;98444.28;;;12.09;100.00
77590;BME280;66746;51.328;12.332;2023-10-31T00:55:13;98448.94;;;12.07;100.00
77590;BME280;66746;51.328;12.332;2023-10-31T00:57:39;98446.34;;;12.05;100.00
77590;BME280;66746;51.328;12.332;2023-10-31T01:00:08;98441.78;;;12.06;100.00
77590;BME280;66746;51.328;12.332;2023-10-31T01:02:35;98450.16;;;12.03;100.00
77590;BME280;66746;51.328;12.332;2023-10-31T01:05:02;98441.13;;;12.02;100.00
77590;BME280;66746;51.328;12.332;2023-10-31T01:07:29;98443.97;;;12.01;100.00
77590;BME280;66746;51.328;12.332;2023-10-31T01:09:56;98426.91;;;11.99;100.00
77590;BME280;66746;51.328;12.332;2023-10-31T01:12:22;98425.72;;;12.03;100.00
77590;BME280;66746;51.328;12.332;2023-10-31T01:14:49;98431.25;;;12.01;100.00
77590;BME280;66746;51.328;12.332;2023-10-31T01:17:17;98425.94;;;12.00;100.00
77590;BME280;66746;51.328;12.332;2023-10-31T01:19:44;98431.25;;;12.01;100.00
77590;BME280;66746;51.328;12.332;2023-10-31T01:22:10;98437.44;;;12.03;100.00
77590;BME280;66746;51.328;12.332;2023-10-31T01:24:37;98437.78;;;11.99;100.00
77590;BME280;66746;51.328;12.332;2023-10-31T01:27:04;98434.84;;;12.02;100.00
77590;BME280;66746;51.328;12.332;2023-10-31T01:29:31;98439.53;;;12.00;100.00
77590;BME280;66746;51.328;12.332;2023-10-31T01:31:57;98433.34;;;11.98;100.00
77590;BME280;66746;51.328;12.332;2023-10-31T01:34:30;98440.50;;;11.99;100.00
77590;BME280;66746;51.328;12.332;2023-10-31T01:36:57;98427.78;;;11.99;100.00
77590;BME280;66746;51.328;12.332;2023-10-31T01:39:23;98417.25;;;11.95;100.00
77590;BME280;66746;51.328;12.332;2023-10-31T01:41:50;98423.13;;;12.01;100.00
77590;BME280;66746;51.328;12.332;2023-10-31T01:44:17;98416.81;;;12.01;100.00
77590;BME280;66746;51.328;12.332;2023-10-31T01:46:43;98420.28;;;12.03;100.00
77590;BME280;66746;51.328;12.332;2023-10-31T01:49:10;98405.19;;;11.99;100.00
77590;BME280;66746;51.328;12.332;2023-10-31T01:51:38;98405.72;;;12.04;100.00
77590;BME280;66746;51.328;12.332;2023-10-31T01:54:05;98397.56;;;12.04;100.00
77590;BME280;66746;51.328;12.332;2023-10-31T01:56:31;98401.25;;;12.03;100.00
77590;BME280;66746;51.328;12.332;2023-10-31T01:58:58;98406.69;;;12.03;100.00
77590;BME280;66746;51.328;12.332;2023-10-31T02:01:25;98414.84;;;12.03;100.00
77590;BME280;66746;51.328;12.332;2023-10-31T02:03:53;98413.13;;;12.02;100.00
77590;BME280;66746;51.328;12.332;2023-10-31T02:06:19;98413.75;;;12.05;100.00
77590;BME280;66746;51.328;12.332;2023-10-31T02:08:48;98412.88;;;12.05;100.00
77590;BME280;66746;51.328;12.332;2023-10-31T02:11:15;98410.28;;;12.03;100.00
77590;BME280;66746;51.328;12.332;2023-10-31T02:13:41;98412.00;;;12.04;100.00
77590;BME280;66746;51.328;12.332;2023-10-31T02:16:08;98411.16;;;12.04;100.00
77590;BME280;66746;51.328;12.332;2023-10-31T02:18:34;98405.72;;;12.04;100.00
77590;BME280;66746;51.328;12.332;2023-10-31T02:21:01;98407.69;;;12.02;100.00
77590;BME280;66746;51.328;12.332;2023-10-31T02:23:29;98407.69;;;12.02;100.00
77590;BME280;66746;51.328;12.332;2023-10-31T02:25:56;98406.19;;;11.98;100.00
77590;BME280;66746;51.328;12.332;2023-10-31T02:28:23;98414.84;;;12.03;100.00
77590;BME280;66746;51.328;12.332;2023-10-31T02:30:50;98410.41;;;12.02;100.00
77590;BME280;66746;51.328;12.332;2023-10-31T02:33:16;98417.03;;;11.98;100.00
77590;BME280;66746;51.328;12.332;2023-10-31T02:35:43;98423.22;;;12.00;100.00
77590;BME280;66746;51.328;12.332;2023-10-31T02:38:10;98425.50;;;12.06;100.00
77590;BME280;66746;51.328;12.332;2023-10-31T02:40:38;98420.06;;;12.06;100.00
77590;BME280;66746;51.328;12.332;2023-10-31T02:43:04;98425.72;;;12.03;100.00
77590;BME280;66746;51.328;12.332;2023-10-31T02:45:32;98415.84;;;12.02;100.00
77590;BME280;66746;51.328;12.332;2023-10-31T02:47:59;98424.00;;;12.02;100.00
77590;BME280;66746;51.328;12.332;2023-10-31T02:50:26;98410.41;;;12.02;100.00
77590;BME280;66746;51.328;12.332;2023-10-31T02:52:52;98414.84;;;12.03;100.00
77590;BME280;66746;51.328;12.332;2023-10-31T02:55:19;98409.28;;;12.04;100.00
77590;BME280;66746;51.328;12.332;2023-10-31T02:57:47;98404.84;;;12.03;100.00
77590;BME280;66746;51.328;12.332;2023-10-31T03:00:14;98405.94;;;12.01;100.00
77590;BME280;66746;51.328;12.332;2023-10-31T03:02:41;98396.81;;;12.02;100.00
77590;BME280;66746;51.328;12.332;2023-10-31T03:05:08;98396.06;;;12.00;100.00
77590;BME280;66746;51.328;12.332;2023-10-31T03:07:35;98395.19;;;11.99;100.00
77590;BME280;66746;51.328;12.332;2023-10-31T03:10:02;98384.19;;;12.01;100.00
77590;BME280;66746;51.328;12.332;2023-10-31T03:12:28;98371.63;;;12.00;100.00
77590;BME280;66746;51.328;12.332;2023-10-31T03:14:56;98388.56;;;12.03;100.00
77590;BME280;66746;51.328;12.332;2023-10-31T03:17:23;98385.28;;;11.98;100.00
77590;BME280;66746;51.328;12.332;2023-10-31T03:19:50;98396.81;;;12.02;100.00
77590;BME280;66746;51.328;12.332;2023-10-31T03:22:17;98395.53;;;11.95;100.00
77590;BME280;66746;51.328;12.332;2023-10-31T03:24:43;98389.88;;;11.98;100.00
77590;BME280;66746;51.328;12.332;2023-10-31T03:27:10;98400.75;;;11.98;100.00
77590;BME280;66746;51.328;12.332;2023-10-31T03:29:37;98404.03;;;11.90;100.00
77590;BME280;66746;51.328;12.332;2023-10-31T03:32:05;98404.66;;;11.94;100.00
77590;BME280;66746;51.328;12.332;2023-10-31T03:34:32;98411.81;;;11.95;100.00
77590;BME280;66746;51.328;12.332;2023-10-31T03:36:59;98413.78;;;11.93;100.00
77590;BME280;66746;51.328;12.332;2023-10-31T03:39:25;98406.63;;;11.92;100.00
77590;BME280;66746;51.328;12.332;2023-10-31T03:41:52;98410.09;;;11.94;100.00
77590;BME280;66746;51.328;12.332;2023-10-31T03:44:21;98409.66;;;12.00;100.00
77590;BME280;66746;51.328;12.332;2023-10-31T03:46:48;98413.78;;;11.93;100.00
77590;BME280;66746;51.328;12.332;2023-10-31T03:49:16;98419.56;;;11.88;100.00
77590;BME280;66746;51.328;12.332;2023-10-31T03:51:42;98417.72;;;11.89;100.00
77590;BME280;66746;51.328;12.332;2023-10-31T03:54:09;98422.16;;;11.90;100.00
77590;BME280;66746;51.328;12.332;2023-10-31T03:56:38;98425.66;;;11.92;100.00
77590;BME280;66746;51.328;12.332;2023-10-31T03:59:05;98425.41;;;11.95;100.00
77590;BME280;66746;51.328;12.332;2023-10-31T04:01:32;98422.94;;;11.92;100.00
77590;BME280;66746;51.328;12.332;2023-10-31T04:03:59;98424.66;;;11.93;100.00
77590;BME280;66746;51.328;12.332;2023-10-31T04:06:27;98428.13;;;11.95;100.00
77590;BME280;66746;51.328;12.332;2023-10-31T04:08:53;98435.44;;;11.94;100.00
77590;BME280;66746;51.328;12.332;2023-10-31T04:11:20;98426.41;;;11.94;100.00
77590;BME280;66746;51.328;12.332;2023-10-31T04:13:47;98439.84;;;11.95;100.00
77590;BME280;66746;51.328;12.332;2023-10-31T04:16:14;98432.47;;;11.97;100.00
77590;BME280;66746;51.328;12.332;2023-10-31T04:18:40;98436.81;;;12.00;100.00
77590;BME280;66746;51.328;12.332;2023-10-31T04:21:07;98435.06;;;11.99;100.00
77590;BME280;66746;51.328;12.332;2023-10-31T04:23:35;98425.19;;;11.98;100.00
77590;BME280;66746;51.328;12.332;2023-10-31T04:26:03;98427.91;;;11.98;100.00
77590;BME280;66746;51.328;12.332;2023-10-31T04:28:33;98417.03;;;11.98;100.00
77590;BME280;66746;51.328;12.332;2023-10-31T04:31:00;98423.22;;;12.00;100.00
77590;BME280;66746;51.328;12.332;2023-10-31T04:33:26;98427.91;;;11.98;100.00
77590;BME280;66746;51.328;12.332;2023-10-31T04:35:53;98421.34;;;12.00;100.00
77590;BME280;66746;51.328;12.332;2023-10-31T04:38:19;98416.81;;;12.01;100.00
77590;BME280;66746;51.328;12.332;2023-10-31T04:40:47;98422.22;;;12.01;100.00
77590;BME280;66746;51.328;12.332;2023-10-31T04:43:14;98431.38;;;12.00;100.00
77590;BME280;66746;51.328;12.332;2023-10-31T04:45:40;98426.16;;;11.97;100.00
77590;BME280;66746;51.328;12.332;2023-10-31T04:48:07;98428.13;;;11.95;100.00
77590;BME280;66746;51.328;12.332;2023-10-31T04:50:33;98435.31;;;11.96;100.00
77590;BME280;66746;51.328;12.332;2023-10-31T04:53:00;98448.13;;;11.94;100.00
77590;BME280;66746;51.328;12.332;2023-10-31T04:55:27;98444.66;;;11.92;100.00
77590;BME280;66746;51.328;12.332;2023-10-31T04:57:55;98432.59;;;11.96;100.00
77590;BME280;66746;51.328;12.332;2023-10-31T05:00:21;98449.84;;;11.95;100.00
77590;BME280;66746;51.328;12.332;2023-10-31T05:02:48;98441.59;;;11.96;100.00
77590;BME280;66746;51.328;12.332;2023-10-31T05:05:14;98429.56;;;11.88;100.00
77590;BME280;66746;51.328;12.332;2023-10-31T05:07:41;98449.84;;;11.95;100.00
77590;BME280;66746;51.328;12.332;2023-10-31T05:10:08;98449.97;;;11.93;100.00
77590;BME280;66746;51.328;12.332;2023-10-31T05:12:35;98457.16;;;11.94;100.00
77590;BME280;66746;51.328;12.332;2023-10-31T05:15:04;98449.00;;;11.94;100.00
77590;BME280;66746;51.328;12.332;2023-10-31T05:17:31;98442.06;;;11.90;100.00
77590;BME280;66746;51.328;12.332;2023-10-31T05:19:58;98448.13;;;11.94;100.00
77590;BME280;66746;51.328;12.332;2023-10-31T05:22:24;98449.22;;;11.91;100.00
77590;BME280;66746;51.328;12.332;2023-10-31T05:24:51;98445.53;;;11.92;100.00
77590;BME280;66746;51.328;12.332;2023-10-31T05:27:18;98452.44;;;11.96;100.00
77590;BME280;66746;51.328;12.332;2023-10-31T05:29:44;98453.00;;;11.89;100.00
77590;BME280;66746;51.328;12.332;2023-10-31T05:32:12;98471.69;;;11.93;100.00
77590;BME280;66746;51.328;12.332;2023-10-31T05:34:39;98465.06;;;11.85;100.00
77590;BME280;66746;51.328;12.332;2023-10-31T05:37:05;98463.13;;;11.87;100.00
77590;BME280;66746;51.328;12.332;2023-10-31T05:39:32;98488.88;;;11.81;100.00
77590;BME280;66746;51.328;12.332;2023-10-31T05:41:58;98484.31;;;11.82;100.00
77590;BME280;66746;51.328;12.332;2023-10-31T05:44:25;98482.94;;;11.76;100.00
77590;BME280;66746;51.328;12.332;2023-10-31T05:46:52;98491.41;;;11.72;100.00
77590;BME280;66746;51.328;12.332;2023-10-31T05:49:19;98502.50;;;11.69;100.00
77590;BME280;66746;51.328;12.332;2023-10-31T05:51:49;98497.47;;;11.63;100.00
77590;BME280;66746;51.328;12.332;2023-10-31T05:54:16;98489.53;;;11.59;100.00
77590;BME280;66746;51.328;12.332;2023-10-31T05:56:43;98504.63;;;11.64;100.00
77590;BME280;66746;51.328;12.332;2023-10-31T05:59:09;98502.97;;;11.61;100.00
77590;BME280;66746;51.328;12.332;2023-10-31T06:01:36;98495.94;;;11.58;100.00
77590;BME280;66746;51.328;12.332;2023-10-31T06:04:03;98510.59;;;11.56;100.00
77590;BME280;66746;51.328;12.332;2023-10-31T06:06:32;98518.09;;;11.52;100.00
77590;BME280;66746;51.328;12.332;2023-10-31T06:08:59;98524.72;;;11.48;100.00
77590;BME280;66746;51.328;12.332;2023-10-31T06:11:25;98535.25;;;11.53;100.00
77590;BME280;66746;51.328;12.332;2023-10-31T06:13:52;98536.34;;;11.50;100.00
77590;BME280;66746;51.328;12.332;2023-10-31T06:16:19;98534.69;;;11.48;100.00
77590;BME280;66746;51.328;12.332;2023-10-31T06:18:46;98536.75;;;11.44;100.00
77590;BME280;66746;51.328;12.332;2023-10-31T06:21:14;98530.56;;;11.42;100.00
77590;BME280;66746;51.328;12.332;2023-10-31T06:23:42;98546.09;;;11.40;100.00
77590;BME280;66746;51.328;12.332;2023-10-31T06:26:09;98558.91;;;11.38;100.00
77590;BME280;66746;51.328;12.332;2023-10-31T06:28:35;98555.44;;;11.36;100.00
77590;BME280;66746;51.328;12.332;2023-10-31T06:31:09;98550.00;;;11.36;100.00
77590;BME280;66746;51.328;12.332;2023-10-31T06:33:35;98566.50;;;11.33;100.00
77590;BME280;66746;51.328;12.332;2023-10-31T06:36:03;98579.31;;;11.31;100.00
77590;BME280;66746;51.328;12.332;2023-10-31T06:38:29;98582.78;;;11.33;100.00
77590;BME280;66746;51.328;12.332;2023-10-31T06:40:57;98591.34;;;11.27;100.00
77590;BME280;66746;51.328;12.332;2023-10-31T06:43:24;98577.97;;;11.24;100.00
77590;BME280;66746;51.328;12.332;2023-10-31T06:45:51;98583.22;;;11.27;100.00
77590;BME280;66746;51.328;12.332;2023-10-31T06:48:17;98580.69;;;11.24;100.00
77590;BME280;66746;51.328;12.332;2023-10-31T06:50:44;98592.53;;;11.23;100.00
77590;BME280;66746;51.328;12.332;2023-10-31T06:53:11;98598.16;;;11.20;100.00
77590;BME280;66746;51.328;12.332;2023-10-31T06:55:37;98602.81;;;11.18;100.00
77590;BME280;66746;51.328;12.332;2023-10-31T06:58:05;98603.81;;;11.17;100.00
77590;BME280;66746;51.328;12.332;2023-10-31T07:00:32;98631.34;;;11.24;100.00
77590;BME280;66746;51.328;12.332;2023-10-31T07:02:58;98627.47;;;11.28;100.00
77590;BME280;66746;51.328;12.332;2023-10-31T07:05:25;98628.34;;;11.28;100.00
77590;BME280;66746;51.328;12.332;2023-10-31T07:07:52;98640.28;;;11.26;100.00
77590;BME280;66746;51.328;12.332;2023-10-31T07:10:19;98653.00;;;11.25;100.00
77590;BME280;66746;51.328;12.332;2023-10-31T07:12:45;98652.00;;;11.26;100.00
77590;BME280;66746;51.328;12.332;2023-10-31T07:15:16;98655.47;;;11.28;100.00
77590;BME280;66746;51.328;12.332;2023-10-31T07:17:42;98653.53;;;11.30;100.00
77590;BME280;66746;51.328;12.332;2023-10-31T07:20:12;98656.13;;;11.32;100.00
77590;BME280;66746;51.328;12.332;2023-10-31T07:22:42;98658.56;;;11.36;100.00
77590;BME280;66746;51.328;12.332;2023-10-31T07:25:09;98655.06;;;11.34;100.00
77590;BME280;66746;51.328;12.332;2023-10-31T07:27:36;98662.91;;;11.39;100.00
77590;BME280;66746;51.328;12.332;2023-10-31T07:30:03;98662.03;;;11.38;100.00
77590;BME280;66746;51.328;12.332;2023-10-31T07:32:32;98678.09;;;11.41;100.00
77590;BME280;66746;51.328;12.332;2023-10-31T07:34:58;98677.69;;;11.47;100.00
77590;BME280;66746;51.328;12.332;2023-10-31T07:37:25;98677.59;;;11.49;100.00
77590;BME280;66746;51.328;12.332;2023-10-31T07:39:52;98678.44;;;11.49;100.00
77590;BME280;66746;51.328;12.332;2023-10-31T07:42:20;98682.69;;;11.53;100.00
77590;BME280;66746;51.328;12.332;2023-10-31T07:44:47;98690.00;;;11.53;100.00
77590;BME280;66746;51.328;12.332;2023-10-31T07:47:14;98693.53;;;11.53;100.00
77590;BME280;66746;51.328;12.332;2023-10-31T07:49:42;98699.97;;;11.52;100.00
77590;BME280;66746;51.328;12.332;2023-10-31T07:52:09;98705.41;;;11.52;100.00
77590;BME280;66746;51.328;12.332;2023-10-31T07:54:39;98705.28;;;11.54;100.00
77590;BME280;66746;51.328;12.332;2023-10-31T07:57:06;98706.06;;;11.56;100.00
77590;BME280;66746;51.328;12.332;2023-10-31T07:59:34;98721.47;;;11.55;100.00
77590;BME280;66746;51.328;12.332;2023-10-31T08:02:01;98722.13;;;11.59;100.00
77590;BME280;66746;51.328;12.332;2023-10-31T08:04:31;98748.81;;;11.67;100.00
77590;BME280;66746;51.328;12.332;2023-10-31T08:06:59;98739.69;;;11.68;100.00
77590;BME280;66746;51.328;12.332;2023-10-31T08:09:26;98755.66;;;11.72;100.00
77590;BME280;66746;51.328;12.332;2023-10-31T08:11:53;98756.72;;;11.70;100.00
77590;BME280;66746;51.328;12.332;2023-10-31T08:14:20;98750.34;;;11.71;100.00
77590;BME280;66746;51.328;12.332;2023-10-31T08:16:48;98747.81;;;11.68;100.00
77590;BME280;66746;51.328;12.332;2023-10-31T08:19:17;98750.91;;;11.76;100.00
77590;BME280;66746;51.328;12.332;2023-10-31T08:21:44;98750.59;;;11.80;100.00
77590;BME280;66746;51.328;12.332;2023-10-31T08:24:13;98757.84;;;11.80;100.00
77590;BME280;66746;51.328;12.332;2023-10-31T08:26:39;98763.41;;;11.91;100.00
77590;BME280;66746;51.328;12.332;2023-10-31T08:29:06;98759.38;;;11.84;100.00
77590;BME280;66746;51.328;12.332;2023-10-31T08:31:33;98768.84;;;11.91;100.00
77590;BME280;66746;51.328;12.332;2023-10-31T08:33:59;98774.50;;;11.88;100.00
77590;BME280;66746;51.328;12.332;2023-10-31T08:36:26;98767.31;;;11.87;100.00
77590;BME280;66746;51.328;12.332;2023-10-31T08:38:55;98775.63;;;11.98;100.00
77590;BME280;66746;51.328;12.332;2023-10-31T08:41:23;98777.50;;;12.10;100.00
77590;BME280;66746;51.328;12.332;2023-10-31T08:43:50;98786.19;;;12.15;100.00
77590;BME280;66746;51.328;12.332;2023-10-31T08:46:17;98777.41;;;12.24;100.00
77590;BME280;66746;51.328;12.332;2023-10-31T08:48:44;98773.16;;;12.20;100.00
77590;BME280;66746;51.328;12.332;2023-10-31T08:51:10;98783.81;;;12.23;100.00
77590;BME280;66746;51.328;12.332;2023-10-31T08:53:37;98804.16;;;12.30;100.00
77590;BME280;66746;51.328;12.332;2023-10-31T08:56:04;98802.66;;;12.38;100.00
77590;BME280;66746;51.328;12.332;2023-10-31T08:58:32;98800.16;;;12.48;100.00
77590;BME280;66746;51.328;12.332;2023-10-31T09:00:59;98793.31;;;12.42;100.00
77590;BME280;66746;51.328;12.332;2023-10-31T09:03:26;98807.44;;;12.35;100.00
77590;BME280;66746;51.328;12.332;2023-10-31T09:05:53;98820.47;;;12.30;99.20
77590;BME280;66746;51.328;12.332;2023-10-31T09:08:23;98811.53;;;12.28;95.93
77590;BME280;66746;51.328;12.332;2023-10-31T09:10:50;98805.69;;;12.34;100.00
77590;BME280;66746;51.328;12.332;2023-10-31T09:13:22;98794.81;;;12.34;100.00
77590;BME280;66746;51.328;12.332;2023-10-31T09:15:50;98802.44;;;12.29;100.00
77590;BME280;66746;51.328;12.332;2023-10-31T09:18:17;98813.13;;;12.18;99.51
77590;BME280;66746;51.328;12.332;2023-10-31T09:20:44;98799.78;;;12.15;100.00
77590;BME280;66746;51.328;12.332;2023-10-31T09:23:11;98807.72;;;12.18;100.00
77590;BME280;66746;51.328;12.332;2023-10-31T09:25:37;98807.28;;;12.11;99.15
77590;BME280;66746;51.328;12.332;2023-10-31T09:28:04;98808.28;;;12.23;100.00
77590;BME280;66746;51.328;12.332;2023-10-31T09:30:31;98818.94;;;12.26;99.74
77590;BME280;66746;51.328;12.332;2023-10-31T09:32:59;98815.09;;;12.16;98.72
77590;BME280;66746;51.328;12.332;2023-10-31T09:35:25;98830.63;;;12.14;100.00
77590;BME280;66746;51.328;12.332;2023-10-31T09:37:52;98802.06;;;12.21;100.00
77590;BME280;66746;51.328;12.332;2023-10-31T09:40:20;98796.66;;;12.46;100.00
77590;BME280;66746;51.328;12.332;2023-10-31T09:42:47;98797.00;;;12.54;99.84
77590;BME280;66746;51.328;12.332;2023-10-31T09:45:14;98807.03;;;12.66;99.46
77590;BME280;66746;51.328;12.332;2023-10-31T09:47:41;98801.03;;;12.74;96.02
77590;BME280;66746;51.328;12.332;2023-10-31T09:50:10;98787.31;;;12.88;96.22
77590;BME280;66746;51.328;12.332;2023-10-31T09:52:37;98791.34;;;13.07;97.59
77590;BME280;66746;51.328;12.332;2023-10-31T09:55:05;98776.31;;;13.02;92.94
77590;BME280;66746;51.328;12.332;2023-10-31T09:57:32;98796.88;;;13.06;92.41
77590;BME280;66746;51.328;12.332;2023-10-31T09:59:58;98806.34;;;13.00;90.38
77590;BME280;66746;51.328;12.332;2023-10-31T10:02:25;98815.28;;;12.90;91.81
77590;BME280;66746;51.328;12.332;2023-10-31T10:04:53;98800.50;;;13.06;90.96
77590;BME280;66746;51.328;12.332;2023-10-31T10:07:21;98799.94;;;13.14;90.92
77590;BME280;66746;51.328;12.332;2023-10-31T10:09:47;98792.88;;;13.11;92.11
77590;BME280;66746;51.328;12.332;2023-10-31T10:12:16;98794.16;;;13.06;90.70
77590;BME280;66746;51.328;12.332;2023-10-31T10:14:44;98799.94;;;12.89;90.07
77590;BME280;66746;51.328;12.332;2023-10-31T10:17:15;98802.69;;;12.76;92.02
77590;BME280;66746;51.328;12.332;2023-10-31T10:19:42;98809.63;;;12.80;90.66
77590;BME280;66746;51.328;12.332;2023-10-31T10:22:09;98798.22;;;12.88;92.19
77590;BME280;66746;51.328;12.332;2023-10-31T10:24:40;98793.53;;;12.90;91.34
77590;BME280;66746;51.328;12.332;2023-10-31T10:27:07;98797.84;;;12.92;89.81
77590;BME280;66746;51.328;12.332;2023-10-31T10:29:34;98808.66;;;12.94;90.89
77590;BME280;66746;51.328;12.332;2023-10-31T10:32:04;98812.88;;;12.85;90.57
77590;BME280;66746;51.328;12.332;2023-10-31T10:34:31;98808.31;;;12.98;89.16
77590;BME280;66746;51.328;12.332;2023-10-31T10:36:59;98816.56;;;12.97;89.86
77590;BME280;66746;51.328;12.332;2023-10-31T10:39:32;98814.66;;;12.86;89.99
77590;BME280;66746;51.328;12.332;2023-10-31T10:42:09;98807.44;;;12.73;90.40
77590;BME280;66746;51.328;12.332;2023-10-31T10:44:42;98804.41;;;12.77;93.28
77590;BME280;66746;51.328;12.332;2023-10-31T10:47:17;98795.28;;;12.78;92.80
77590;BME280;66746;51.328;12.332;2023-10-31T10:49:50;98802.44;;;12.79;88.62
77590;BME280;66746;51.328;12.332;2023-10-31T10:52:23;98787.66;;;12.83;90.40
77590;BME280;66746;51.328;12.332;2023-10-31T10:54:58;98800.50;;;12.94;91.84
77590;BME280;66746;51.328;12.332;2023-10-31T10:57:32;98789.16;;;13.00;89.49
77590;BME280;66746;51.328;12.332;2023-10-31T11:00:05;98793.72;;;13.12;88.49
77590;BME280;66746;51.328;12.332;2023-10-31T11:02:32;98796.56;;;13.10;87.92
77590;BME280;66746;51.328;12.332;2023-10-31T11:05:02;98807.56;;;13.09;87.83
77590;BME280;66746;51.328;12.332;2023-10-31T11:07:29;98813.97;;;13.08;87.98
77590;BME280;66746;51.328;12.332;2023-10-31T11:09:57;98799.28;;;13.10;89.23
77590;BME280;66746;51.328;12.332;2023-10-31T11:12:25;98814.84;;;13.08;89.08
77590;BME280;66746;51.328;12.332;2023-10-31T11:14:53;98827.25;;;13.12;88.52
77590;BME280;66746;51.328;12.332;2023-10-31T11:17:25;98830.09;;;13.23;88.43
77590;BME280;66746;51.328;12.332;2023-10-31T11:19:54;98835.75;;;13.20;86.48
77590;BME280;66746;51.328;12.332;2023-10-31T11:22:24;98829.84;;;13.26;89.76
77590;BME280;66746;51.328;12.332;2023-10-31T11:24:51;98839.00;;;13.25;90.14
77590;BME280;66746;51.328;12.332;2023-10-31T11:27:18;98847.06;;;13.14;89.05
77590;BME280;66746;51.328;12.332;2023-10-31T11:29:45;98844.25;;;13.03;85.56
77590;BME280;66746;51.328;12.332;2023-10-31T11:32:14;98854.47;;;13.00;86.44
77590;BME280;66746;51.328;12.332;2023-10-31T11:34:41;98846.50;;;12.97;87.08
77590;BME280;66746;51.328;12.332;2023-10-31T11:37:25;98829.31;;;12.96;88.19
77590;BME280;66746;51.328;12.332;2023-10-31T11:40:14;98852.50;;;13.02;89.02
77590;BME280;66746;51.328;12.332;2023-10-31T11:42:42;98872.06;;;12.94;87.31
77590;BME280;66746;51.328;12.332;2023-10-31T11:45:09;98885.16;;;12.89;89.68
77590;BME280;66746;51.328;12.332;2023-10-31T11:47:46;98879.94;;;12.86;88.36
77590;BME280;66746;51.328;12.332;2023-10-31T11:50:13;98884.06;;;12.79;87.55
77590;BME280;66746;51.328;12.332;2023-10-31T11:52:40;98881.22;;;12.81;89.03
77590;BME280;66746;51.328;12.332;2023-10-31T11:55:09;98896.03;;;12.89;88.75
77590;BME280;66746;51.328;12.332;2023-10-31T11:57:35;98895.28;;;12.87;89.62
77590;BME280;66746;51.328;12.332;2023-10-31T12:00:02;98887.75;;;12.78;90.13
77590;BME280;66746;51.328;12.332;2023-10-31T12:02:38;98905.81;;;12.79;91.78
77590;BME280;66746;51.328;12.332;2023-10-31T12:05:10;98908.97;;;12.73;90.94
77590;BME280;66746;51.328;12.332;2023-10-31T12:07:44;98925.63;;;12.69;88.56
77590;BME280;66746;51.328;12.332;2023-10-31T12:10:15;98918.66;;;12.65;90.51
77590;BME280;66746;51.328;12.332;2023-10-31T12:12:47;98928.66;;;12.64;91.88
77590;BME280;66746;51.328;12.332;2023-10-31T12:15:19;98926.94;;;12.76;91.18
77590;BME280;66746;51.328;12.332;2023-10-31T12:17:45;98925.44;;;12.84;92.21
77590;BME280;66746;51.328;12.332;2023-10-31T12:20:13;98934.34;;;12.86;90.42
77590;BME280;66746;51.328;12.332;2023-10-31T12:22:40;98937.91;;;12.87;92.26
77590;BME280;66746;51.328;12.332;2023-10-31T12:25:08;98930.41;;;12.90;88.72
77590;BME280;66746;51.328;12.332;2023-10-31T12:27:45;98938.38;;;12.93;91.48
77590;BME280;66746;51.328;12.332;2023-10-31T12:30:13;98943.28;;;13.01;88.90
77590;BME280;66746;51.328;12.332;2023-10-31T12:32:40;98952.69;;;13.09;88.95
77590;BME280;66746;51.328;12.332;2023-10-31T12:35:08;98943.97;;;13.04;90.08
77590;BME280;66746;51.328;12.332;2023-10-31T12:37:39;98937.19;;;12.97;89.55
77590;BME280;66746;51.328;12.332;2023-10-31T12:40:07;98950.44;;;12.89;89.85
77590;BME280;66746;51.328;12.332;2023-10-31T12:42:34;98946.09;;;12.87;87.75
77590;BME280;66746;51.328;12.332;2023-10-31T12:45:05;98955.88;;;12.89;91.22